Terminal Aerodrome Forecast
Issued by NWS

Home | Current Version | Previous Version | Text Only | Print | Product List | Glossary Off
Versions: 1 2 3 4 5 6 7 8 9 10 11 12 13 14 15 16

000
FTUS42 KMHX 151721
TAFPGV
TAF
KPGV 151721Z 1518/1618 24006KT P6SM SKC
     FM160800 24006KT 3SM BR SCT005 BKN020
     FM161200 30005KT P6SM BKN020
     FM161600 01014G22KT P6SM OVC020
      AMD LTD TO CLD VIS AND WIND=

USA.gov is the U.S. government's official web portal to all federal, state and local government web resources and services.